createdAt,value
2022-11-18T00:01:51.379Z,22.65
2022-11-18T00:03:55.717Z,22.48
2022-11-18T00:06:00.808Z,21.55
2022-11-18T00:08:04.966Z,21.50
2022-11-18T00:10:09.525Z,20.52
2022-11-18T00:12:31.308Z,21.00
2022-11-18T00:14:36.863Z,21.77
2022-11-18T00:16:41.039Z,20.33
2022-11-18T00:18:45.213Z,19.35
2022-11-18T00:20:49.415Z,20.08
2022-11-18T00:22:53.573Z,19.70
2022-11-18T00:24:57.719Z,21.55
2022-11-18T00:27:02.151Z,19.42
2022-11-18T00:29:06.420Z,19.70
2022-11-18T00:31:14.122Z,21.00
2022-11-18T00:33:18.191Z,20.52
2022-11-18T00:35:22.403Z,20.88
2022-11-18T00:37:26.590Z,19.83
2022-11-18T00:39:30.861Z,20.73
2022-11-18T00:41:48.883Z,20.42
2022-11-18T00:43:53.024Z,18.55
2022-11-18T00:45:57.196Z,18.27
2022-11-18T00:48:03.133Z,18.67
2022-11-18T00:50:11.073Z,18.17
2022-11-18T00:52:15.232Z,18.45
2022-11-18T00:54:19.465Z,18.95
2022-11-18T00:56:23.701Z,21.00
2022-11-18T00:58:27.768Z,20.92
2022-11-18T01:00:31.915Z,21.27
2022-11-18T01:02:36.115Z,21.20
2022-11-18T01:04:41.622Z,21.25
2022-11-18T01:06:45.975Z,19.88
2022-11-18T01:08:50.220Z,19.75
2022-11-18T01:10:54.831Z,19.75
2022-11-18T01:13:22.352Z,18.02
2022-11-18T01:15:26.439Z,20.23
2022-11-18T01:17:32.186Z,19.58
2022-11-18T01:19:36.532Z,20.13
2022-11-18T01:21:42.034Z,19.02
2022-11-18T01:23:46.523Z,18.63
2022-11-18T01:25:51.269Z,19.10
2022-11-18T01:27:55.531Z,19.70
2022-11-18T01:29:59.677Z,19.10
2022-11-18T01:32:23.896Z,18.33
2022-11-18T01:34:29.590Z,20.70
2022-11-18T01:36:33.824Z,19.92
2022-11-18T01:38:39.274Z,19.60
2022-11-18T01:40:43.530Z,20.35
2022-11-18T01:42:47.718Z,18.42
2022-11-18T01:45:01.129Z,17.30
2022-11-18T01:47:05.418Z,17.55
2022-11-18T01:49:12.659Z,14.88
2022-11-18T01:51:18.462Z,13.00
2022-11-18T01:53:26.111Z,12.75
2022-11-18T01:55:36.971Z,9.95
2022-11-18T01:57:42.524Z,7.65
2022-11-18T01:59:48.904Z,6.55
2022-11-18T02:01:58.228Z,7.32
2022-11-18T02:04:03.754Z,6.90
2022-11-18T02:06:09.574Z,6.75
2022-11-18T02:08:14.360Z,7.07
2022-11-18T02:10:23.755Z,6.38
2022-11-18T02:12:29.343Z,5.22
2022-11-18T02:14:36.961Z,5.95
2022-11-18T02:17:03.453Z,5.93
2022-11-18T02:19:24.940Z,5.28
2022-11-18T02:21:40.813Z,5.80
2022-11-18T02:24:16.101Z,5.82
2022-11-18T02:27:06.765Z,5.90
2022-11-18T02:29:16.006Z,5.57
2022-11-18T02:31:25.911Z,5.15
2022-11-18T02:33:37.657Z,4.97
2022-11-18T02:35:44.675Z,4.60
2022-11-18T02:37:52.441Z,4.57
2022-11-18T02:40:03.177Z,4.43
2022-11-18T02:42:12.101Z,4.40
2022-11-18T02:44:18.977Z,4.00
2022-11-18T02:46:27.797Z,4.70
2022-11-18T02:48:35.628Z,4.00
2022-11-18T02:50:41.130Z,3.97
2022-11-18T02:52:47.689Z,4.60
2022-11-18T02:54:53.226Z,3.67
2022-11-18T02:56:58.282Z,4.70
2022-11-18T02:59:02.699Z,4.93
2022-11-18T03:01:08.903Z,4.80
2022-11-18T03:03:27.420Z,4.57
2022-11-18T03:05:43.234Z,4.03
2022-11-18T03:07:53.182Z,4.38
2022-11-18T03:12:11.995Z,5.03
2022-11-18T03:14:25.867Z,4.80
2022-11-18T03:16:37.796Z,4.72
2022-11-18T03:18:48.117Z,4.75
2022-11-18T03:23:05.103Z,5.07
2022-11-18T03:25:13.617Z,5.25
2022-11-18T03:27:22.444Z,4.80
2022-11-18T03:29:31.237Z,4.72
2022-11-18T03:31:41.616Z,5.75
2022-11-18T03:33:49.459Z,5.55
2022-11-18T03:35:55.162Z,5.60
2022-11-18T03:38:06.867Z,5.00
2022-11-18T03:40:16.282Z,5.82
2022-11-18T03:42:29.539Z,6.60
2022-11-18T03:44:39.355Z,6.30
2022-11-18T03:46:48.997Z,5.80
2022-11-18T03:48:55.752Z,6.50
2022-11-18T03:51:03.633Z,6.60
2022-11-18T03:53:08.684Z,6.47
2022-11-18T03:55:16.877Z,6.85
2022-11-18T03:57:25.422Z,6.90
2022-11-18T03:59:34.575Z,6.93
2022-11-18T04:01:44.374Z,8.20
2022-11-18T04:03:50.077Z,8.18
2022-11-18T04:06:00.623Z,7.15
2022-11-18T04:08:09.468Z,8.38
2022-11-18T04:10:18.466Z,11.00
2022-11-18T04:12:24.568Z,8.65
2022-11-18T04:14:28.953Z,8.63
2022-11-18T04:16:39.534Z,7.40
2022-11-18T04:18:44.100Z,7.15
2022-11-18T04:20:49.893Z,7.75
2022-11-18T04:22:54.402Z,6.68
2022-11-18T04:24:58.585Z,7.75
2022-11-18T04:27:03.765Z,8.70
2022-11-18T04:29:08.358Z,8.30
2022-11-18T04:31:12.569Z,9.82
2022-11-18T04:33:16.932Z,9.82
2022-11-18T04:35:21.449Z,9.55
2022-11-18T04:37:27.873Z,7.75
2022-11-18T04:39:32.192Z,7.80
2022-11-18T04:41:53.884Z,10.05
2022-11-18T04:43:58.060Z,9.85
2022-11-18T04:46:02.456Z,13.38
2022-11-18T04:48:07.413Z,20.90
2022-11-18T04:50:12.010Z,24.63
2022-11-18T04:52:16.483Z,18.98
2022-11-18T04:54:22.770Z,15.35
2022-11-18T04:56:27.182Z,10.90
2022-11-18T04:58:31.640Z,11.07
2022-11-18T05:00:36.011Z,12.63
2022-11-18T05:02:40.412Z,11.75
2022-11-18T05:04:44.684Z,12.05
2022-11-18T05:06:49.447Z,14.77
2022-11-18T05:08:54.035Z,14.30
2022-11-18T05:11:19.961Z,13.77
2022-11-18T05:13:23.160Z,13.85
2022-11-18T05:15:27.583Z,12.23
2022-11-18T05:17:32.044Z,9.77
2022-11-18T05:19:38.280Z,8.77
2022-11-18T05:21:43.169Z,10.52
2022-11-18T05:23:47.561Z,9.95
2022-11-18T05:25:51.678Z,9.55
2022-11-18T05:27:57.556Z,7.47
2022-11-18T05:30:01.907Z,10.73
2022-11-18T05:32:06.970Z,8.57
2022-11-18T05:34:11.305Z,7.47
2022-11-18T05:36:17.553Z,6.65
2022-11-18T05:38:21.859Z,8.23
2022-11-18T05:40:26.968Z,10.63
2022-11-18T05:42:48.532Z,7.60
2022-11-18T05:44:58.120Z,6.85
2022-11-18T05:47:03.107Z,8.65
2022-11-18T05:49:07.827Z,8.57
2022-11-18T05:51:12.104Z,7.85
2022-11-18T05:53:16.759Z,7.13
2022-11-18T05:55:22.383Z,5.88
2022-11-18T05:57:26.723Z,6.50
2022-11-18T05:59:31.156Z,6.40
2022-11-18T06:01:40.610Z,7.25
2022-11-18T06:03:45.204Z,7.30
2022-11-18T06:05:50.251Z,8.23
2022-11-18T06:07:56.371Z,8.05
2022-11-18T06:10:05.391Z,9.68
2022-11-18T06:12:11.468Z,9.65
2022-11-18T06:14:20.021Z,10.73
2022-11-18T06:16:28.468Z,9.70
2022-11-18T06:18:36.109Z,10.38
2022-11-18T06:20:42.625Z,10.65
2022-11-18T06:22:47.848Z,10.27
2022-11-18T06:24:52.259Z,10.98
2022-11-18T06:26:56.730Z,10.02
2022-11-18T06:29:01.328Z,10.23
2022-11-18T06:31:05.784Z,9.88
2022-11-18T06:33:10.366Z,10.75
2022-11-18T06:35:16.653Z,10.20
2022-11-18T06:37:22.027Z,9.98
2022-11-18T06:39:29.577Z,9.90
2022-11-18T06:41:34.070Z,10.10
2022-11-18T06:43:41.488Z,10.73
2022-11-18T06:46:09.046Z,10.80
2022-11-18T06:48:12.725Z,11.65
2022-11-18T06:50:18.900Z,11.90
2022-11-18T06:52:24.182Z,12.85
2022-11-18T06:54:28.540Z,11.63
2022-11-18T06:56:32.806Z,11.80
2022-11-18T06:58:37.573Z,12.23
2022-11-18T07:00:41.889Z,12.77
2022-11-18T07:02:46.420Z,13.60
2022-11-18T07:04:50.676Z,13.60
2022-11-18T07:06:56.515Z,12.63
2022-11-18T07:09:02.641Z,25.50
2022-11-18T07:11:09.181Z,23.67
2022-11-18T07:13:13.508Z,22.58
2022-11-18T07:15:18.055Z,13.75
2022-11-18T07:17:22.428Z,12.77
2022-11-18T07:19:29.070Z,13.00
2022-11-18T07:21:37.225Z,12.93
2022-11-18T07:23:43.330Z,11.88
2022-11-18T07:25:47.630Z,11.38
2022-11-18T07:27:52.013Z,12.32
2022-11-18T07:29:56.443Z,12.98
2022-11-18T07:32:01.218Z,13.07
2022-11-18T07:34:05.511Z,12.15
2022-11-18T07:36:12.518Z,13.07
2022-11-18T07:38:16.803Z,12.45
2022-11-18T07:40:22.573Z,13.50
2022-11-18T07:42:27.119Z,12.00
2022-11-18T07:44:31.615Z,12.00
2022-11-18T07:46:37.330Z,13.18
2022-11-18T07:48:42.070Z,13.65
2022-11-18T07:50:47.403Z,12.07
2022-11-18T07:52:51.876Z,15.00
2022-11-18T07:54:56.139Z,12.45
2022-11-18T07:57:01.951Z,10.77
2022-11-18T07:59:06.590Z,11.25
2022-11-18T08:01:12.189Z,11.77
2022-11-18T08:03:16.797Z,11.43
2022-11-18T08:05:21.263Z,11.27
2022-11-18T08:07:26.152Z,11.68
2022-11-18T08:09:30.740Z,11.30
2022-11-18T08:11:35.469Z,11.73
2022-11-18T08:13:41.423Z,11.55
2022-11-18T08:15:45.795Z,10.50
2022-11-18T08:17:50.151Z,11.20
2022-11-18T08:19:54.473Z,12.45
2022-11-18T08:21:58.971Z,11.20
2022-11-18T08:24:03.304Z,12.65
2022-11-18T08:26:10.337Z,11.45
2022-11-18T08:28:15.999Z,11.88
2022-11-18T08:30:22.388Z,11.73
2022-11-18T08:32:27.067Z,11.80
2022-11-18T08:34:31.847Z,12.93
2022-11-18T08:36:37.692Z,13.77
2022-11-18T08:38:42.111Z,11.05
2022-11-18T08:40:48.580Z,11.18
2022-11-18T08:42:52.982Z,12.18
2022-11-18T08:44:57.340Z,11.55
2022-11-18T08:47:03.527Z,12.25
2022-11-18T08:49:07.843Z,12.20
2022-11-18T08:51:13.125Z,11.77
2022-11-18T08:53:17.538Z,12.55
2022-11-18T08:55:22.119Z,13.25
2022-11-18T08:57:26.738Z,12.73
2022-11-18T08:59:30.980Z,13.43
2022-11-18T09:01:35.425Z,13.05
2022-11-18T09:03:41.626Z,13.18
2022-11-18T09:05:45.930Z,12.48
2022-11-18T09:07:50.230Z,14.15
2022-11-18T09:09:54.506Z,12.70
2022-11-18T09:11:59.056Z,13.77
2022-11-18T09:16:29.694Z,12.38
2022-11-18T09:18:34.454Z,13.30
2022-11-18T09:20:40.211Z,12.57
2022-11-18T09:22:44.701Z,13.35
2022-11-18T09:24:49.428Z,13.52
2022-11-18T09:26:54.515Z,12.10
2022-11-18T09:28:58.757Z,12.85
2022-11-18T09:31:05.595Z,13.50
2022-11-18T09:33:10.331Z,13.52
2022-11-18T09:35:14.807Z,13.55
2022-11-18T09:37:20.419Z,13.00
2022-11-18T09:39:25.552Z,13.35
2022-11-18T09:41:48.879Z,13.27
2022-11-18T09:44:04.291Z,12.88
2022-11-18T09:46:22.504Z,13.55
2022-11-18T09:48:48.601Z,13.82
2022-11-18T09:50:56.708Z,13.30
2022-11-18T09:53:11.243Z,13.05
2022-11-18T09:55:17.853Z,13.60
2022-11-18T09:57:25.144Z,14.10
2022-11-18T09:59:33.448Z,14.23
2022-11-18T10:01:38.822Z,14.25
2022-11-18T10:03:43.634Z,14.18
2022-11-18T10:05:53.738Z,14.40
2022-11-18T10:08:22.302Z,15.30
2022-11-18T10:10:35.540Z,15.02
2022-11-18T10:12:48.800Z,14.43
2022-11-18T10:15:07.549Z,16.50
2022-11-18T10:17:29.918Z,15.60
2022-11-18T10:19:38.676Z,14.27
2022-11-18T10:21:52.796Z,13.82
2022-11-18T10:24:04.104Z,15.63
2022-11-18T10:26:09.468Z,15.40
2022-11-18T10:28:20.153Z,15.90
2022-11-18T10:30:26.744Z,16.17
2022-11-18T10:32:38.157Z,16.13
2022-11-18T10:34:51.030Z,16.75
2022-11-18T10:37:02.813Z,16.40
2022-11-18T10:39:10.863Z,15.68
2022-11-18T10:41:17.944Z,16.23
2022-11-18T10:43:50.722Z,15.65
2022-11-18T10:45:55.025Z,14.23
2022-11-18T10:48:01.836Z,14.52
2022-11-18T10:50:32.059Z,15.25
2022-11-18T10:52:54.770Z,17.00
2022-11-18T10:55:23.410Z,16.55
2022-11-18T10:57:28.609Z,15.15
2022-11-18T10:59:36.314Z,16.02
2022-11-18T11:01:41.223Z,15.95
2022-11-18T11:03:57.792Z,15.00
2022-11-18T11:06:43.985Z,14.73
2022-11-18T11:08:53.268Z,12.57
2022-11-18T11:11:00.646Z,14.75
2022-11-18T11:13:15.576Z,14.75
2022-11-18T11:15:25.778Z,13.60
2022-11-18T11:17:33.959Z,14.43
2022-11-18T11:19:52.369Z,15.65
2022-11-18T11:21:58.437Z,14.90
2022-11-18T11:24:03.434Z,14.35
2022-11-18T11:28:52.492Z,16.40
2022-11-18T11:31:07.955Z,17.92
2022-11-18T11:33:32.452Z,16.15
2022-11-18T11:35:42.967Z,17.70
2022-11-18T11:37:55.315Z,17.83
2022-11-18T11:40:12.036Z,19.50
2022-11-18T11:42:30.821Z,18.92
2022-11-18T11:44:50.360Z,18.25
2022-11-18T11:47:34.573Z,18.48
2022-11-18T11:49:50.940Z,17.23
2022-11-18T11:51:59.001Z,17.48
2022-11-18T11:54:29.631Z,17.83
2022-11-18T11:56:37.312Z,16.27
2022-11-18T11:59:01.158Z,16.48
2022-11-18T12:01:14.573Z,18.05
2022-11-18T12:03:47.329Z,17.90
2022-11-18T12:05:55.867Z,16.70
2022-11-18T12:08:03.638Z,16.30
2022-11-18T12:10:23.756Z,16.52
2022-11-18T12:12:38.457Z,18.70
2022-11-18T12:14:49.734Z,19.10
2022-11-18T12:17:00.834Z,23.83
2022-11-18T12:19:13.727Z,19.48
2022-11-18T12:21:55.643Z,19.02
2022-11-18T12:24:31.478Z,17.90
2022-11-18T12:26:37.203Z,18.63
2022-11-18T12:28:43.798Z,19.13
2022-11-18T12:30:50.307Z,17.98
2022-11-18T12:32:58.724Z,20.92
2022-11-18T12:35:08.214Z,22.17
2022-11-18T12:37:46.889Z,19.10
2022-11-18T12:40:01.900Z,18.30
2022-11-18T12:42:24.768Z,16.55
2022-11-18T12:44:31.050Z,18.05
2022-11-18T12:47:00.968Z,18.83
2022-11-18T12:49:38.836Z,16.88
2022-11-18T12:51:44.568Z,16.85
2022-11-18T12:53:50.629Z,18.23
2022-11-18T12:55:55.149Z,18.58
2022-11-18T12:58:00.074Z,18.95
2022-11-18T13:00:20.576Z,17.52
2022-11-18T13:02:27.971Z,17.27
2022-11-18T13:04:32.550Z,17.85
2022-11-18T13:06:39.661Z,16.13
2022-11-18T13:08:44.312Z,15.52
2022-11-18T13:11:13.949Z,14.65
2022-11-18T13:13:28.388Z,14.32
2022-11-18T13:15:50.059Z,16.30
2022-11-18T13:18:07.084Z,15.90
2022-11-18T13:20:22.357Z,15.93
2022-11-18T13:22:44.321Z,16.88
2022-11-18T13:24:50.211Z,16.83
2022-11-18T13:26:57.888Z,16.52
2022-11-18T13:29:20.686Z,18.60
2022-11-18T13:31:31.984Z,18.45
2022-11-18T13:33:48.359Z,18.65
2022-11-18T13:35:53.717Z,18.70
2022-11-18T13:38:03.547Z,19.10
2022-11-18T13:40:20.891Z,17.95
2022-11-18T13:42:29.784Z,18.02
2022-11-18T13:44:36.490Z,18.80
2022-11-18T13:47:07.825Z,17.42
2022-11-18T13:49:19.586Z,20.05
2022-11-18T13:51:25.344Z,19.00
2022-11-18T13:53:32.328Z,18.77
2022-11-18T13:55:40.056Z,20.30
2022-11-18T13:58:03.219Z,19.73
2022-11-18T14:00:18.745Z,19.33
2022-11-18T14:02:24.058Z,19.67
2022-11-18T14:04:34.543Z,20.33
2022-11-18T14:08:45.635Z,20.60
2022-11-18T14:10:50.134Z,21.38
2022-11-18T14:13:00.355Z,19.63
2022-11-18T14:15:22.042Z,20.33
2022-11-18T14:17:28.544Z,21.27
2022-11-18T14:19:35.093Z,21.02
2022-11-18T14:21:39.685Z,21.15
2022-11-18T14:23:45.640Z,21.95
2022-11-18T14:25:50.311Z,20.75
2022-11-18T14:27:55.947Z,21.23
2022-11-18T14:30:00.585Z,20.83
2022-11-18T14:32:16.206Z,21.67
2022-11-18T14:34:25.534Z,21.88
2022-11-18T14:36:31.314Z,21.83
2022-11-18T14:39:11.407Z,20.95
2022-11-18T14:41:12.830Z,22.42
2022-11-18T14:43:17.223Z,21.17
2022-11-18T14:45:22.396Z,22.63
2022-11-18T14:47:29.739Z,22.50
2022-11-18T14:49:34.191Z,23.05
2022-11-18T14:51:39.909Z,22.67
2022-11-18T14:53:45.390Z,21.55
2022-11-18T14:55:51.394Z,22.85
2022-11-18T14:57:55.774Z,23.33
2022-11-18T15:00:00.582Z,24.67
2022-11-18T15:02:05.344Z,24.88
2022-11-18T15:04:10.011Z,23.42
2022-11-18T15:06:15.267Z,24.50
2022-11-18T15:08:21.336Z,23.98
2022-11-18T15:10:27.091Z,25.60
2022-11-18T15:12:31.887Z,24.98
2022-11-18T15:14:36.699Z,26.13
2022-11-18T15:16:41.003Z,27.48
2022-11-18T15:18:46.812Z,28.88
2022-11-18T15:20:51.120Z,28.83
2022-11-18T15:22:57.426Z,28.63
2022-11-18T15:25:03.232Z,29.27
2022-11-18T15:27:07.568Z,29.88
2022-11-18T15:29:18.690Z,28.92
2022-11-18T15:31:24.166Z,29.45
2022-11-18T15:33:28.930Z,28.23
2022-11-18T15:35:33.818Z,28.98
2022-11-18T15:37:38.663Z,33.95
2022-11-18T15:39:43.019Z,28.63
2022-11-18T15:41:49.311Z,30.95
2022-11-18T15:43:54.773Z,28.38
2022-11-18T15:45:59.531Z,25.75
2022-11-18T15:48:04.196Z,26.95
2022-11-18T15:50:09.414Z,28.45
2022-11-18T15:52:14.123Z,24.48
2022-11-18T15:54:18.812Z,27.92
2022-11-18T15:56:28.897Z,27.27
2022-11-18T15:58:36.021Z,26.63
2022-11-18T16:00:40.784Z,26.90
2022-11-18T16:02:45.489Z,27.63
2022-11-18T16:04:49.949Z,26.63
2022-11-18T16:06:55.025Z,27.55
2022-11-18T16:09:00.529Z,26.70
2022-11-18T16:11:22.449Z,29.17
2022-11-18T16:13:29.977Z,29.95
2022-11-18T16:15:48.189Z,29.00
2022-11-18T16:17:54.790Z,31.93
2022-11-18T16:19:59.258Z,29.77
2022-11-18T16:22:03.810Z,30.02
2022-11-18T16:24:13.017Z,30.67
2022-11-18T16:26:17.592Z,32.03
2022-11-18T16:28:22.118Z,31.40
2022-11-18T16:30:44.127Z,31.88
2022-11-18T16:32:53.409Z,32.10
2022-11-18T16:35:01.360Z,32.20
2022-11-18T16:37:07.801Z,31.15
2022-11-18T16:39:15.073Z,30.92
2022-11-18T16:41:32.952Z,31.88
2022-11-18T16:43:37.487Z,32.17
2022-11-18T16:45:42.529Z,32.85
2022-11-18T16:48:00.870Z,32.47
2022-11-18T16:50:10.754Z,33.50
2022-11-18T16:52:15.168Z,33.72
2022-11-18T16:54:20.902Z,35.10
2022-11-18T16:56:26.903Z,35.42
2022-11-18T16:58:31.301Z,33.15
2022-11-18T17:01:29.309Z,34.88
2022-11-18T17:03:34.222Z,37.05
2022-11-18T17:05:40.204Z,34.45
2022-11-18T17:07:46.938Z,33.80
2022-11-18T17:09:53.178Z,34.50
2022-11-18T17:11:58.722Z,35.75
2022-11-18T17:14:03.079Z,34.33
2022-11-18T17:16:09.344Z,36.42
2022-11-18T17:18:13.804Z,33.45
2022-11-18T17:20:18.558Z,32.83
2022-11-18T17:22:24.430Z,37.65
2022-11-18T17:24:29.099Z,32.47
2022-11-18T17:26:33.370Z,38.85
2022-11-18T17:28:39.052Z,33.53
2022-11-18T17:30:49.671Z,34.97
2022-11-18T17:32:54.860Z,34.40
2022-11-18T17:35:00.813Z,35.92
2022-11-18T17:37:07.068Z,33.45
2022-11-18T17:39:14.541Z,34.83
2022-11-18T17:41:38.561Z,33.20
2022-11-18T17:43:43.265Z,31.90
2022-11-18T17:45:51.569Z,32.78
2022-11-18T17:47:57.667Z,31.90
2022-11-18T17:50:01.866Z,35.55
2022-11-18T17:52:07.448Z,35.50
2022-11-18T17:54:14.425Z,34.63
2022-11-18T17:56:19.555Z,32.65
2022-11-18T17:58:23.880Z,34.90
2022-11-18T18:00:28.348Z,34.92
2022-11-18T18:02:32.627Z,34.53
2022-11-18T18:04:37.724Z,35.03
2022-11-18T18:06:42.271Z,34.10
2022-11-18T18:08:47.023Z,37.65
2022-11-18T18:11:03.813Z,34.63
2022-11-18T18:13:25.463Z,35.45
2022-11-18T18:15:30.270Z,34.80
2022-11-18T18:17:34.632Z,34.10
2022-11-18T18:19:39.009Z,33.88
2022-11-18T18:21:43.378Z,32.53
2022-11-18T18:23:48.058Z,33.95
2022-11-18T18:25:52.403Z,31.77
2022-11-18T18:27:59.580Z,32.95
2022-11-18T18:30:04.252Z,32.63
2022-11-18T18:32:09.390Z,34.13
2022-11-18T18:34:14.410Z,32.58
2022-11-18T18:36:22.022Z,32.90
2022-11-18T18:38:27.209Z,32.95
2022-11-18T18:40:32.146Z,31.50
2022-11-18T18:42:37.031Z,32.88
2022-11-18T18:45:00.504Z,30.52
2022-11-18T18:47:05.001Z,34.45
2022-11-18T18:49:11.430Z,31.70
2022-11-18T18:51:17.401Z,33.67
2022-11-18T18:53:21.864Z,35.25
2022-11-18T18:55:26.498Z,34.70
2022-11-18T18:57:31.452Z,33.00
2022-11-18T18:59:37.078Z,34.15
2022-11-18T19:01:44.241Z,35.05
2022-11-18T19:03:50.076Z,34.67
2022-11-18T19:06:27.384Z,33.67
2022-11-18T19:08:24.315Z,35.75
2022-11-18T19:10:29.787Z,34.38
2022-11-18T19:12:52.489Z,32.92
2022-11-18T19:14:57.098Z,32.65
2022-11-18T19:17:10.024Z,32.60
2022-11-18T19:19:17.555Z,32.70
2022-11-18T19:21:22.211Z,31.02
2022-11-18T19:23:27.119Z,32.33
2022-11-18T19:25:32.786Z,30.08
2022-11-18T19:27:40.419Z,32.20
2022-11-18T19:29:44.855Z,31.92
2022-11-18T19:31:50.187Z,32.58
2022-11-18T19:33:56.863Z,32.85
2022-11-18T19:36:03.987Z,32.50
2022-11-18T19:38:08.493Z,32.78
2022-11-18T19:40:14.223Z,32.55
2022-11-18T19:42:19.987Z,33.45
2022-11-18T19:44:24.703Z,32.03
2022-11-18T19:46:31.681Z,33.40
2022-11-18T19:48:36.918Z,32.97
2022-11-18T19:50:43.094Z,32.20
2022-11-18T19:52:50.532Z,32.30
2022-11-18T19:54:58.605Z,32.72
2022-11-18T19:57:04.215Z,31.95
2022-11-18T19:59:08.970Z,32.33
2022-11-18T20:01:16.662Z,30.23
2022-11-18T20:03:53.442Z,31.52
2022-11-18T20:06:04.104Z,32.00
2022-11-18T20:08:10.175Z,30.30
2022-11-18T20:10:15.568Z,32.35
2022-11-18T20:12:20.188Z,30.38
2022-11-18T20:14:25.817Z,32.05
2022-11-18T20:16:30.325Z,32.35
2022-11-18T20:18:35.308Z,34.20
2022-11-18T20:20:40.337Z,32.83
2022-11-18T20:22:46.946Z,33.38
2022-11-18T20:24:52.094Z,33.33
2022-11-18T20:26:57.676Z,33.05
2022-11-18T20:29:06.776Z,35.20
2022-11-18T20:31:13.752Z,33.25
2022-11-18T20:33:18.710Z,32.90
2022-11-18T20:35:25.879Z,32.95
2022-11-18T20:37:32.124Z,33.58
2022-11-18T20:39:38.609Z,32.75
2022-11-18T20:41:43.607Z,33.40
2022-11-18T20:43:48.204Z,31.27
2022-11-18T20:45:56.052Z,33.40
2022-11-18T20:48:02.110Z,32.13
2022-11-18T20:50:08.910Z,35.10
2022-11-18T20:52:13.359Z,32.97
2022-11-18T20:54:18.581Z,33.10
2022-11-18T20:56:26.015Z,33.78
2022-11-18T20:58:30.450Z,33.35
2022-11-18T21:00:34.939Z,31.20
2022-11-18T21:02:39.567Z,31.17
2022-11-18T21:04:44.429Z,31.95
2022-11-18T21:06:49.160Z,30.38
2022-11-18T21:08:57.052Z,29.60
2022-11-18T21:11:04.134Z,31.73
2022-11-18T21:13:27.740Z,32.17
2022-11-18T21:15:32.224Z,32.85
2022-11-18T21:17:36.653Z,32.33
2022-11-18T21:19:45.803Z,31.50
2022-11-18T21:21:52.882Z,32.70
2022-11-18T21:23:57.868Z,31.65
2022-11-18T21:26:02.885Z,31.40
2022-11-18T21:28:07.387Z,31.73
2022-11-18T21:30:14.534Z,33.72
2022-11-18T21:32:19.415Z,32.03
2022-11-18T21:34:24.471Z,31.98
2022-11-18T21:36:30.281Z,33.92
2022-11-18T21:38:38.585Z,32.97
2022-11-18T21:40:45.284Z,32.17
2022-11-18T21:42:50.242Z,31.83
2022-11-18T21:44:54.927Z,32.55
2022-11-18T21:47:00.790Z,30.88
2022-11-18T21:49:05.645Z,32.33
2022-11-18T21:51:11.726Z,32.33
2022-11-18T21:53:16.336Z,31.60
2022-11-18T21:55:21.716Z,32.65
2022-11-18T21:57:26.345Z,33.85
2022-11-18T21:59:31.066Z,32.47
2022-11-18T22:01:35.367Z,32.20
2022-11-18T22:03:42.311Z,34.47
2022-11-18T22:05:46.486Z,34.70
2022-11-18T22:07:51.103Z,33.92
2022-11-18T22:09:55.630Z,34.30
2022-11-18T22:11:59.760Z,33.78
2022-11-18T22:14:04.587Z,34.95
2022-11-18T22:16:11.665Z,35.42
2022-11-18T22:18:15.957Z,35.67
2022-11-18T22:20:21.691Z,34.42
2022-11-18T22:22:26.317Z,35.35
2022-11-18T22:24:30.630Z,36.25
2022-11-18T22:26:35.001Z,34.90
2022-11-18T22:28:39.560Z,34.58
2022-11-18T22:30:43.992Z,35.22
2022-11-18T22:32:48.307Z,35.40
2022-11-18T22:34:52.670Z,35.75
2022-11-18T22:36:58.468Z,35.80
2022-11-18T22:39:03.654Z,36.58
2022-11-18T22:41:31.802Z,35.60
2022-11-18T22:43:35.364Z,35.33
2022-11-18T22:45:39.726Z,36.30
2022-11-18T22:47:44.143Z,35.58
2022-11-18T22:49:52.159Z,35.08
2022-11-18T22:52:00.800Z,34.05
2022-11-18T22:56:30.007Z,37.25
2022-11-18T22:58:34.540Z,38.17
2022-11-18T23:00:38.973Z,37.00
2022-11-18T23:02:43.283Z,37.35
2022-11-18T23:04:47.738Z,38.05
2022-11-18T23:06:52.051Z,35.40
2022-11-18T23:08:58.081Z,36.30
2022-11-18T23:11:03.418Z,37.67
2022-11-18T23:13:25.245Z,38.17
2022-11-18T23:15:29.480Z,37.55
2022-11-18T23:17:34.018Z,39.55
2022-11-18T23:19:42.091Z,38.20
2022-11-18T23:21:47.204Z,39.97
2022-11-18T23:23:52.092Z,37.72
2022-11-18T23:26:04.442Z,38.42
2022-11-18T23:28:09.196Z,38.05
2022-11-18T23:30:14.189Z,37.97
2022-11-18T23:32:18.413Z,39.85
2022-11-18T23:34:23.033Z,38.08
2022-11-18T23:36:28.118Z,38.95
2022-11-18T23:38:33.872Z,39.38
2022-11-18T23:40:38.349Z,39.20
2022-11-18T23:42:44.818Z,38.42
2022-11-18T23:44:52.884Z,38.35
2022-11-18T23:46:57.430Z,40.25
2022-11-18T23:49:01.900Z,39.65
2022-11-18T23:51:08.225Z,38.08
2022-11-18T23:53:12.828Z,37.25
2022-11-18T23:55:17.514Z,38.53
2022-11-18T23:57:22.473Z,38.72
2022-11-18T23:59:28.696Z,38.60
